Accueil
METAR-TAF:

METAR-TAF

Aéroports :

Turin, Italie

latitude: 45-05-20N, longitude: 007-36-20E, altitude: 288 m

Observation

Le bulletin a été fait il y a 11 heures et 9 minutes, à 17:08 UTC
Vent 6 kt de est/nord-est, variant entre nord/nord-est et sud-est
Température 28°C
Humidité 62%
Pression 1014 hPa
Visibilité 10 km ou plus
Quelques nuages à une hauteur de 2500 ft, Cumulonimbus.
Nuages fragmentés à une hauteur de 3000 ft
orage

METAR: LIMA 111708Z 07006KT 030V140 9999 TS FEW025CB BKN030 28/20 Q1014

Heure: 06:17 (04:17 UTC)


TAF: absent

Observations et prévisions météorologiques de plus de 4000 aéroports (messages METAR et TAF).

Les stations disponibles sont représentées par des disques jaunes et rouges sur la carte.

Passer la souris dessus pour voir le nom de la station.

Cliquer dessus pour voir les observations et prévisions météorologiques.

Pour changer de carte: cliquez sur les boutons verts avec une croix noire pour zoomer, sur le bouton vert avec un tiret pour effectuer un zoom arrière, ou sur les flèches vertes pour les cartes adjacentes.


METAR-TAF: